sensor_id;sensor_type;location;lat;lon;timestamp;temperature;humidity
10411;DHT22;5251;52.112;8.606;2024-01-15T00:00:42;4.60;99.90
10411;DHT22;5251;52.112;8.606;2024-01-15T00:03:07;4.60;99.90
10411;DHT22;5251;52.112;8.606;2024-01-15T00:05:33;4.60;99.90
10411;DHT22;5251;52.112;8.606;2024-01-15T00:07:59;4.60;99.90
10411;DHT22;5251;52.112;8.606;2024-01-15T00:10:24;4.60;99.90
10411;DHT22;5251;52.112;8.606;2024-01-15T00:12:50;4.50;99.90
10411;DHT22;5251;52.112;8.606;2024-01-15T00:15:16;4.60;99.90
10411;DHT22;5251;52.112;8.606;2024-01-15T00:17:41;4.60;99.90
10411;DHT22;5251;52.112;8.606;2024-01-15T00:20:07;4.50;99.90
10411;DHT22;5251;52.112;8.606;2024-01-15T00:22:33;4.60;99.90
10411;DHT22;5251;52.112;8.606;2024-01-15T00:25:01;4.60;99.90
10411;DHT22;5251;52.112;8.606;2024-01-15T00:27:27;4.60;99.90
10411;DHT22;5251;52.112;8.606;2024-01-15T00:29:53;4.60;99.90
10411;DHT22;5251;52.112;8.606;2024-01-15T00:32:20;4.60;99.90
10411;DHT22;5251;52.112;8.606;2024-01-15T00:34:45;4.50;99.90
10411;DHT22;5251;52.112;8.606;2024-01-15T00:37:11;4.50;99.90
10411;DHT22;5251;52.112;8.606;2024-01-15T00:39:37;4.50;99.90
10411;DHT22;5251;52.112;8.606;2024-01-15T00:42:02;4.50;99.90
10411;DHT22;5251;52.112;8.606;2024-01-15T00:44:28;4.50;99.90
10411;DHT22;5251;52.112;8.606;2024-01-15T00:46:54;4.40;99.90
10411;DHT22;5251;52.112;8.606;2024-01-15T00:49:19;4.40;99.90
10411;DHT22;5251;52.112;8.606;2024-01-15T00:51:45;4.40;99.90
10411;DHT22;5251;52.112;8.606;2024-01-15T00:54:11;4.30;99.90
10411;DHT22;5251;52.112;8.606;2024-01-15T00:56:36;4.30;99.90
10411;DHT22;5251;52.112;8.606;2024-01-15T00:59:02;4.30;99.90
10411;DHT22;5251;52.112;8.606;2024-01-15T01:01:28;4.30;99.90
10411;DHT22;5251;52.112;8.606;2024-01-15T01:03:54;4.30;99.90
10411;DHT22;5251;52.112;8.606;2024-01-15T01:06:19;4.30;99.90
10411;DHT22;5251;52.112;8.606;2024-01-15T01:08:45;4.20;99.90
10411;DHT22;5251;52.112;8.606;2024-01-15T01:11:17;4.20;99.90
10411;DHT22;5251;52.112;8.606;2024-01-15T01:13:43;4.20;99.90
10411;DHT22;5251;52.112;8.606;2024-01-15T01:16:08;4.20;99.90
10411;DHT22;5251;52.112;8.606;2024-01-15T01:18:35;4.20;99.90
10411;DHT22;5251;52.112;8.606;2024-01-15T01:21:00;4.20;99.90
10411;DHT22;5251;52.112;8.606;2024-01-15T01:23:26;4.20;99.90
10411;DHT22;5251;52.112;8.606;2024-01-15T01:25:51;4.20;99.90
10411;DHT22;5251;52.112;8.606;2024-01-15T01:28:17;4.20;99.90
10411;DHT22;5251;52.112;8.606;2024-01-15T01:30:43;4.30;99.90
10411;DHT22;5251;52.112;8.606;2024-01-15T01:33:08;4.30;99.90
10411;DHT22;5251;52.112;8.606;2024-01-15T01:35:34;4.30;99.90
10411;DHT22;5251;52.112;8.606;2024-01-15T01:38:00;4.30;99.90
10411;DHT22;5251;52.112;8.606;2024-01-15T01:40:25;4.30;99.90
10411;DHT22;5251;52.112;8.606;2024-01-15T01:42:51;4.30;99.90
10411;DHT22;5251;52.112;8.606;2024-01-15T01:45:16;4.40;99.90
10411;DHT22;5251;52.112;8.606;2024-01-15T01:47:42;4.40;99.90
10411;DHT22;5251;52.112;8.606;2024-01-15T01:50:08;4.40;99.90
10411;DHT22;5251;52.112;8.606;2024-01-15T01:52:34;4.40;99.90
10411;DHT22;5251;52.112;8.606;2024-01-15T01:55:02;4.40;99.90
10411;DHT22;5251;52.112;8.606;2024-01-15T01:57:29;4.40;99.90
10411;DHT22;5251;52.112;8.606;2024-01-15T01:59:56;4.50;99.90
10411;DHT22;5251;52.112;8.606;2024-01-15T02:02:24;4.50;99.90
10411;DHT22;5251;52.112;8.606;2024-01-15T02:04:50;4.50;99.90
10411;DHT22;5251;52.112;8.606;2024-01-15T02:07:15;4.50;99.90
10411;DHT22;5251;52.112;8.606;2024-01-15T02:09:44;4.50;99.90
10411;DHT22;5251;52.112;8.606;2024-01-15T02:12:10;4.50;99.90
10411;DHT22;5251;52.112;8.606;2024-01-15T02:14:36;4.60;99.90
10411;DHT22;5251;52.112;8.606;2024-01-15T02:17:02;4.60;99.90
10411;DHT22;5251;52.112;8.606;2024-01-15T02:19:27;4.60;99.90
10411;DHT22;5251;52.112;8.606;2024-01-15T02:21:53;4.50;99.90
10411;DHT22;5251;52.112;8.606;2024-01-15T02:24:18;4.60;99.90
10411;DHT22;5251;52.112;8.606;2024-01-15T02:26:44;4.50;99.90
10411;DHT22;5251;52.112;8.606;2024-01-15T02:29:12;4.50;99.90
10411;DHT22;5251;52.112;8.606;2024-01-15T02:31:39;4.50;99.90
10411;DHT22;5251;52.112;8.606;2024-01-15T02:34:04;4.50;99.90
10411;DHT22;5251;52.112;8.606;2024-01-15T02:36:30;4.50;99.90
10411;DHT22;5251;52.112;8.606;2024-01-15T02:38:56;4.50;99.90
10411;DHT22;5251;52.112;8.606;2024-01-15T02:41:21;4.60;99.90
10411;DHT22;5251;52.112;8.606;2024-01-15T02:43:47;4.50;99.90
10411;DHT22;5251;52.112;8.606;2024-01-15T02:46:12;4.50;99.90
10411;DHT22;5251;52.112;8.606;2024-01-15T02:48:38;4.50;99.90
10411;DHT22;5251;52.112;8.606;2024-01-15T02:51:04;4.60;99.90
10411;DHT22;5251;52.112;8.606;2024-01-15T02:53:29;4.60;99.90
10411;DHT22;5251;52.112;8.606;2024-01-15T02:55:55;4.60;99.90
10411;DHT22;5251;52.112;8.606;2024-01-15T02:58:21;4.60;99.90
10411;DHT22;5251;52.112;8.606;2024-01-15T03:00:47;4.50;99.90
10411;DHT22;5251;52.112;8.606;2024-01-15T03:03:13;4.50;99.90
10411;DHT22;5251;52.112;8.606;2024-01-15T03:05:38;4.50;99.90
10411;DHT22;5251;52.112;8.606;2024-01-15T03:08:04;4.50;99.90
10411;DHT22;5251;52.112;8.606;2024-01-15T03:10:30;4.50;99.90
10411;DHT22;5251;52.112;8.606;2024-01-15T03:12:55;4.60;99.90
10411;DHT22;5251;52.112;8.606;2024-01-15T03:15:21;4.50;99.90
10411;DHT22;5251;52.112;8.606;2024-01-15T03:17:47;4.50;99.90
10411;DHT22;5251;52.112;8.606;2024-01-15T03:20:12;4.60;99.90
10411;DHT22;5251;52.112;8.606;2024-01-15T03:22:38;4.60;99.90
10411;DHT22;5251;52.112;8.606;2024-01-15T03:25:04;4.60;99.90
10411;DHT22;5251;52.112;8.606;2024-01-15T03:27:30;4.50;99.90
10411;DHT22;5251;52.112;8.606;2024-01-15T03:29:55;4.60;99.90
10411;DHT22;5251;52.112;8.606;2024-01-15T03:32:21;4.60;99.90
10411;DHT22;5251;52.112;8.606;2024-01-15T03:34:46;4.60;99.90
10411;DHT22;5251;52.112;8.606;2024-01-15T03:37:13;4.60;99.90
10411;DHT22;5251;52.112;8.606;2024-01-15T03:39:39;4.60;99.90
10411;DHT22;5251;52.112;8.606;2024-01-15T03:42:05;4.60;99.90
10411;DHT22;5251;52.112;8.606;2024-01-15T03:44:31;4.60;99.90
10411;DHT22;5251;52.112;8.606;2024-01-15T03:46:57;4.60;99.90
10411;DHT22;5251;52.112;8.606;2024-01-15T03:49:23;4.60;99.90
10411;DHT22;5251;52.112;8.606;2024-01-15T03:51:49;4.60;99.90
10411;DHT22;5251;52.112;8.606;2024-01-15T03:54:14;4.70;99.90
10411;DHT22;5251;52.112;8.606;2024-01-15T03:56:40;4.60;99.90
10411;DHT22;5251;52.112;8.606;2024-01-15T03:59:05;4.60;99.90
10411;DHT22;5251;52.112;8.606;2024-01-15T04:01:31;4.60;99.90
10411;DHT22;5251;52.112;8.606;2024-01-15T04:03:57;4.60;99.90
10411;DHT22;5251;52.112;8.606;2024-01-15T04:06:22;4.60;99.90
10411;DHT22;5251;52.112;8.606;2024-01-15T04:08:48;4.60;99.90
10411;DHT22;5251;52.112;8.606;2024-01-15T04:11:13;4.70;99.90
10411;DHT22;5251;52.112;8.606;2024-01-15T04:13:39;4.70;99.90
10411;DHT22;5251;52.112;8.606;2024-01-15T04:16:05;4.60;99.90
10411;DHT22;5251;52.112;8.606;2024-01-15T04:18:30;4.60;99.90
10411;DHT22;5251;52.112;8.606;2024-01-15T04:20:56;4.70;99.90
10411;DHT22;5251;52.112;8.606;2024-01-15T04:23:21;4.70;99.90
10411;DHT22;5251;52.112;8.606;2024-01-15T04:25:47;4.70;99.90
10411;DHT22;5251;52.112;8.606;2024-01-15T04:28:13;4.70;99.90
10411;DHT22;5251;52.112;8.606;2024-01-15T04:30:38;4.70;99.90
10411;DHT22;5251;52.112;8.606;2024-01-15T04:33:04;4.70;99.90
10411;DHT22;5251;52.112;8.606;2024-01-15T04:35:33;4.70;99.90
10411;DHT22;5251;52.112;8.606;2024-01-15T04:37:59;4.70;99.90
10411;DHT22;5251;52.112;8.606;2024-01-15T04:40:25;4.70;99.90
10411;DHT22;5251;52.112;8.606;2024-01-15T04:42:53;4.70;99.90
10411;DHT22;5251;52.112;8.606;2024-01-15T04:45:19;4.70;99.90
10411;DHT22;5251;52.112;8.606;2024-01-15T04:47:48;4.70;99.90
10411;DHT22;5251;52.112;8.606;2024-01-15T04:50:14;4.70;99.90
10411;DHT22;5251;52.112;8.606;2024-01-15T04:52:39;4.80;99.90
10411;DHT22;5251;52.112;8.606;2024-01-15T04:55:05;4.80;99.90
10411;DHT22;5251;52.112;8.606;2024-01-15T04:57:30;4.80;99.90
10411;DHT22;5251;52.112;8.606;2024-01-15T04:59:56;4.80;99.90
10411;DHT22;5251;52.112;8.606;2024-01-15T05:02:22;4.80;99.90
10411;DHT22;5251;52.112;8.606;2024-01-15T05:04:47;4.80;99.90
10411;DHT22;5251;52.112;8.606;2024-01-15T05:07:13;4.80;99.90
10411;DHT22;5251;52.112;8.606;2024-01-15T05:09:38;4.70;99.90
10411;DHT22;5251;52.112;8.606;2024-01-15T05:12:04;4.70;99.90
10411;DHT22;5251;52.112;8.606;2024-01-15T05:14:30;4.80;99.90
10411;DHT22;5251;52.112;8.606;2024-01-15T05:16:55;4.80;99.90
10411;DHT22;5251;52.112;8.606;2024-01-15T05:19:21;4.80;99.90
10411;DHT22;5251;52.112;8.606;2024-01-15T05:21:47;4.80;99.90
10411;DHT22;5251;52.112;8.606;2024-01-15T05:24:12;4.80;99.90
10411;DHT22;5251;52.112;8.606;2024-01-15T05:26:38;4.80;99.90
10411;DHT22;5251;52.112;8.606;2024-01-15T05:29:04;4.80;99.90
10411;DHT22;5251;52.112;8.606;2024-01-15T05:31:30;4.90;99.90
10411;DHT22;5251;52.112;8.606;2024-01-15T05:33:55;4.80;99.90
10411;DHT22;5251;52.112;8.606;2024-01-15T05:36:21;4.80;99.90
10411;DHT22;5251;52.112;8.606;2024-01-15T05:38:47;4.80;99.90
10411;DHT22;5251;52.112;8.606;2024-01-15T05:41:13;4.80;99.90
10411;DHT22;5251;52.112;8.606;2024-01-15T05:43:39;4.80;99.90
10411;DHT22;5251;52.112;8.606;2024-01-15T05:46:05;4.80;99.90
10411;DHT22;5251;52.112;8.606;2024-01-15T05:48:30;4.80;99.90
10411;DHT22;5251;52.112;8.606;2024-01-15T05:50:56;4.80;99.90
10411;DHT22;5251;52.112;8.606;2024-01-15T05:53:21;4.80;99.90
10411;DHT22;5251;52.112;8.606;2024-01-15T05:55:47;4.70;99.90
10411;DHT22;5251;52.112;8.606;2024-01-15T05:58:13;4.70;99.90
10411;DHT22;5251;52.112;8.606;2024-01-15T06:00:38;4.70;99.90
10411;DHT22;5251;52.112;8.606;2024-01-15T06:03:04;4.70;99.90
10411;DHT22;5251;52.112;8.606;2024-01-15T06:05:29;4.70;99.90
10411;DHT22;5251;52.112;8.606;2024-01-15T06:07:55;4.70;99.90
10411;DHT22;5251;52.112;8.606;2024-01-15T06:10:21;4.70;99.90
10411;DHT22;5251;52.112;8.606;2024-01-15T06:12:46;4.70;99.90
10411;DHT22;5251;52.112;8.606;2024-01-15T06:15:12;4.70;99.90
10411;DHT22;5251;52.112;8.606;2024-01-15T06:17:38;4.80;99.90
10411;DHT22;5251;52.112;8.606;2024-01-15T06:20:04;4.80;99.90
10411;DHT22;5251;52.112;8.606;2024-01-15T06:22:30;4.80;99.90
10411;DHT22;5251;52.112;8.606;2024-01-15T06:24:56;4.80;99.90
10411;DHT22;5251;52.112;8.606;2024-01-15T06:27:21;4.80;99.90
10411;DHT22;5251;52.112;8.606;2024-01-15T06:29:47;4.70;99.90
10411;DHT22;5251;52.112;8.606;2024-01-15T06:32:13;4.70;99.90
10411;DHT22;5251;52.112;8.606;2024-01-15T06:34:39;4.70;99.90
10411;DHT22;5251;52.112;8.606;2024-01-15T06:37:05;4.70;99.90
10411;DHT22;5251;52.112;8.606;2024-01-15T06:39:30;4.70;99.90
10411;DHT22;5251;52.112;8.606;2024-01-15T06:41:56;4.70;99.90
10411;DHT22;5251;52.112;8.606;2024-01-15T06:44:21;4.70;99.90
10411;DHT22;5251;52.112;8.606;2024-01-15T06:46:47;4.70;99.90
10411;DHT22;5251;52.112;8.606;2024-01-15T06:49:13;4.80;99.90
10411;DHT22;5251;52.112;8.606;2024-01-15T06:51:39;4.80;99.90
10411;DHT22;5251;52.112;8.606;2024-01-15T06:54:05;4.70;99.90
10411;DHT22;5251;52.112;8.606;2024-01-15T06:56:31;4.70;99.90
10411;DHT22;5251;52.112;8.606;2024-01-15T06:58:57;4.70;99.90
10411;DHT22;5251;52.112;8.606;2024-01-15T07:01:23;4.70;99.90
10411;DHT22;5251;52.112;8.606;2024-01-15T07:03:48;4.70;99.90
10411;DHT22;5251;52.112;8.606;2024-01-15T07:06:14;4.80;99.90
10411;DHT22;5251;52.112;8.606;2024-01-15T07:08:40;4.80;99.90
10411;DHT22;5251;52.112;8.606;2024-01-15T07:11:06;4.80;99.90
10411;DHT22;5251;52.112;8.606;2024-01-15T07:13:32;4.80;99.90
10411;DHT22;5251;52.112;8.606;2024-01-15T07:15:58;4.80;99.90
10411;DHT22;5251;52.112;8.606;2024-01-15T07:18:24;4.80;99.90
10411;DHT22;5251;52.112;8.606;2024-01-15T07:20:50;4.80;99.90
10411;DHT22;5251;52.112;8.606;2024-01-15T07:23:16;4.80;99.90
10411;DHT22;5251;52.112;8.606;2024-01-15T07:25:42;4.80;99.90
10411;DHT22;5251;52.112;8.606;2024-01-15T07:28:08;4.80;99.90
10411;DHT22;5251;52.112;8.606;2024-01-15T07:30:33;4.80;99.90
10411;DHT22;5251;52.112;8.606;2024-01-15T07:32:59;4.80;99.90
10411;DHT22;5251;52.112;8.606;2024-01-15T07:35:25;4.80;99.90
10411;DHT22;5251;52.112;8.606;2024-01-15T07:37:50;4.70;99.90
10411;DHT22;5251;52.112;8.606;2024-01-15T07:40:16;4.80;99.90
10411;DHT22;5251;52.112;8.606;2024-01-15T07:42:42;4.70;99.90
10411;DHT22;5251;52.112;8.606;2024-01-15T07:45:10;4.70;99.90
10411;DHT22;5251;52.112;8.606;2024-01-15T07:47:36;4.60;99.90
10411;DHT22;5251;52.112;8.606;2024-01-15T07:50:02;4.60;99.90
10411;DHT22;5251;52.112;8.606;2024-01-15T07:52:28;4.60;99.90
10411;DHT22;5251;52.112;8.606;2024-01-15T07:54:53;4.60;99.90
10411;DHT22;5251;52.112;8.606;2024-01-15T07:57:20;4.60;99.90
10411;DHT22;5251;52.112;8.606;2024-01-15T07:59:46;4.60;99.90
10411;DHT22;5251;52.112;8.606;2024-01-15T08:02:11;4.60;99.90
10411;DHT22;5251;52.112;8.606;2024-01-15T08:04:37;4.60;99.90
10411;DHT22;5251;52.112;8.606;2024-01-15T08:07:04;4.60;99.90
10411;DHT22;5251;52.112;8.606;2024-01-15T08:09:31;4.60;99.90
10411;DHT22;5251;52.112;8.606;2024-01-15T08:11:56;4.60;99.90
10411;DHT22;5251;52.112;8.606;2024-01-15T08:14:22;4.60;99.90
10411;DHT22;5251;52.112;8.606;2024-01-15T08:16:48;4.70;99.90
10411;DHT22;5251;52.112;8.606;2024-01-15T08:19:13;4.70;99.90
10411;DHT22;5251;52.112;8.606;2024-01-15T08:21:39;4.70;99.90
10411;DHT22;5251;52.112;8.606;2024-01-15T08:24:05;4.70;99.90
10411;DHT22;5251;52.112;8.606;2024-01-15T08:26:31;4.70;99.90
10411;DHT22;5251;52.112;8.606;2024-01-15T08:28:58;4.80;99.90
10411;DHT22;5251;52.112;8.606;2024-01-15T08:31:23;4.80;99.90
10411;DHT22;5251;52.112;8.606;2024-01-15T08:33:49;4.80;99.90
10411;DHT22;5251;52.112;8.606;2024-01-15T08:36:15;4.80;99.90
10411;DHT22;5251;52.112;8.606;2024-01-15T08:38:41;4.80;99.90
10411;DHT22;5251;52.112;8.606;2024-01-15T08:41:06;4.80;99.90
10411;DHT22;5251;52.112;8.606;2024-01-15T08:43:34;4.80;99.90
10411;DHT22;5251;52.112;8.606;2024-01-15T08:45:59;4.90;99.90
10411;DHT22;5251;52.112;8.606;2024-01-15T08:48:26;4.90;99.90
10411;DHT22;5251;52.112;8.606;2024-01-15T08:50:55;5.00;99.90
10411;DHT22;5251;52.112;8.606;2024-01-15T08:53:21;4.90;99.90
10411;DHT22;5251;52.112;8.606;2024-01-15T08:55:47;5.00;99.90
10411;DHT22;5251;52.112;8.606;2024-01-15T08:58:13;5.00;99.90
10411;DHT22;5251;52.112;8.606;2024-01-15T09:00:39;5.00;99.90
10411;DHT22;5251;52.112;8.606;2024-01-15T09:03:05;5.00;99.90
10411;DHT22;5251;52.112;8.606;2024-01-15T09:05:31;5.00;99.90
10411;DHT22;5251;52.112;8.606;2024-01-15T09:07:56;5.00;99.90
10411;DHT22;5251;52.112;8.606;2024-01-15T09:10:22;5.00;99.90
10411;DHT22;5251;52.112;8.606;2024-01-15T09:12:48;5.00;99.90
10411;DHT22;5251;52.112;8.606;2024-01-15T09:15:16;5.00;99.90
10411;DHT22;5251;52.112;8.606;2024-01-15T09:17:42;4.90;99.90
10411;DHT22;5251;52.112;8.606;2024-01-15T09:20:08;4.90;99.90
10411;DHT22;5251;52.112;8.606;2024-01-15T09:22:35;4.90;99.90
10411;DHT22;5251;52.112;8.606;2024-01-15T09:25:03;4.90;99.90
10411;DHT22;5251;52.112;8.606;2024-01-15T09:27:29;4.80;99.90
10411;DHT22;5251;52.112;8.606;2024-01-15T09:29:55;4.80;99.90
10411;DHT22;5251;52.112;8.606;2024-01-15T09:32:20;4.80;99.90
10411;DHT22;5251;52.112;8.606;2024-01-15T09:34:46;4.80;99.90
10411;DHT22;5251;52.112;8.606;2024-01-15T09:37:13;4.80;99.90
10411;DHT22;5251;52.112;8.606;2024-01-15T09:39:39;4.70;99.90
10411;DHT22;5251;52.112;8.606;2024-01-15T09:42:05;4.70;99.90
10411;DHT22;5251;52.112;8.606;2024-01-15T09:44:31;4.70;99.90
10411;DHT22;5251;52.112;8.606;2024-01-15T09:46:57;4.60;99.90
10411;DHT22;5251;52.112;8.606;2024-01-15T09:49:23;4.70;99.90
10411;DHT22;5251;52.112;8.606;2024-01-15T09:51:49;4.70;99.90
10411;DHT22;5251;52.112;8.606;2024-01-15T09:54:16;4.70;99.90
10411;DHT22;5251;52.112;8.606;2024-01-15T09:56:46;4.70;99.90
10411;DHT22;5251;52.112;8.606;2024-01-15T09:59:18;4.70;99.90
10411;DHT22;5251;52.112;8.606;2024-01-15T10:01:47;4.70;99.90
10411;DHT22;5251;52.112;8.606;2024-01-15T10:04:15;4.80;99.90
10411;DHT22;5251;52.112;8.606;2024-01-15T10:06:45;4.80;99.90
10411;DHT22;5251;52.112;8.606;2024-01-15T10:09:13;4.80;99.90
10411;DHT22;5251;52.112;8.606;2024-01-15T10:11:42;4.90;99.90
10411;DHT22;5251;52.112;8.606;2024-01-15T10:14:09;4.90;99.90
10411;DHT22;5251;52.112;8.606;2024-01-15T10:16:38;5.00;99.90
10411;DHT22;5251;52.112;8.606;2024-01-15T10:19:04;5.00;99.90
10411;DHT22;5251;52.112;8.606;2024-01-15T10:21:32;5.10;99.90
10411;DHT22;5251;52.112;8.606;2024-01-15T10:24:00;5.10;99.90
10411;DHT22;5251;52.112;8.606;2024-01-15T10:26:26;5.10;99.90
10411;DHT22;5251;52.112;8.606;2024-01-15T10:28:52;5.20;99.90
10411;DHT22;5251;52.112;8.606;2024-01-15T10:31:18;5.20;99.90
10411;DHT22;5251;52.112;8.606;2024-01-15T10:33:45;5.20;99.90
10411;DHT22;5251;52.112;8.606;2024-01-15T10:36:10;5.20;99.90
10411;DHT22;5251;52.112;8.606;2024-01-15T10:38:39;5.20;99.90
10411;DHT22;5251;52.112;8.606;2024-01-15T10:41:05;5.20;99.90
10411;DHT22;5251;52.112;8.606;2024-01-15T10:43:30;5.30;99.90
10411;DHT22;5251;52.112;8.606;2024-01-15T10:45:56;5.30;99.90
10411;DHT22;5251;52.112;8.606;2024-01-15T10:48:22;5.30;99.90
10411;DHT22;5251;52.112;8.606;2024-01-15T10:50:48;5.40;99.90
10411;DHT22;5251;52.112;8.606;2024-01-15T10:53:15;5.40;99.90
10411;DHT22;5251;52.112;8.606;2024-01-15T10:55:42;5.40;99.90
10411;DHT22;5251;52.112;8.606;2024-01-15T10:58:08;5.50;99.90
10411;DHT22;5251;52.112;8.606;2024-01-15T11:00:38;5.50;99.90
10411;DHT22;5251;52.112;8.606;2024-01-15T11:03:05;5.50;99.90
10411;DHT22;5251;52.112;8.606;2024-01-15T11:05:47;5.50;99.90
10411;DHT22;5251;52.112;8.606;2024-01-15T11:08:13;5.60;99.90
10411;DHT22;5251;52.112;8.606;2024-01-15T11:10:50;5.60;99.90
10411;DHT22;5251;52.112;8.606;2024-01-15T11:16:09;5.60;99.30
10411;DHT22;5251;52.112;8.606;2024-01-15T11:18:37;5.60;99.30
10411;DHT22;5251;52.112;8.606;2024-01-15T11:23:49;5.70;99.40
10411;DHT22;5251;52.112;8.606;2024-01-15T11:28:57;5.70;99.20
10411;DHT22;5251;52.112;8.606;2024-01-15T11:34:08;5.80;99.00
10411;DHT22;5251;52.112;8.606;2024-01-15T11:42:02;5.80;98.80
10411;DHT22;5251;52.112;8.606;2024-01-15T11:44:31;5.80;98.70
10411;DHT22;5251;52.112;8.606;2024-01-15T11:47:01;5.80;98.60
10411;DHT22;5251;52.112;8.606;2024-01-15T11:52:19;5.80;98.70
10411;DHT22;5251;52.112;8.606;2024-01-15T11:55:12;5.80;98.60
10411;DHT22;5251;52.112;8.606;2024-01-15T11:57:40;5.90;98.50
10411;DHT22;5251;52.112;8.606;2024-01-15T12:00:09;5.90;98.80
10411;DHT22;5251;52.112;8.606;2024-01-15T12:02:35;5.90;98.40
10411;DHT22;5251;52.112;8.606;2024-01-15T12:05:01;5.90;98.30
10411;DHT22;5251;52.112;8.606;2024-01-15T12:07:27;6.00;98.40
10411;DHT22;5251;52.112;8.606;2024-01-15T12:09:52;5.90;98.30
10411;DHT22;5251;52.112;8.606;2024-01-15T12:12:26;6.00;98.30
10411;DHT22;5251;52.112;8.606;2024-01-15T12:14:52;5.90;98.10
10411;DHT22;5251;52.112;8.606;2024-01-15T12:17:18;5.90;98.00
10411;DHT22;5251;52.112;8.606;2024-01-15T12:19:44;6.00;98.10
10411;DHT22;5251;52.112;8.606;2024-01-15T12:22:09;6.00;97.60
10411;DHT22;5251;52.112;8.606;2024-01-15T12:24:36;5.90;97.50
10411;DHT22;5251;52.112;8.606;2024-01-15T12:27:02;5.90;97.50
10411;DHT22;5251;52.112;8.606;2024-01-15T12:29:27;5.90;97.80
10411;DHT22;5251;52.112;8.606;2024-01-15T12:31:53;5.90;97.90
10411;DHT22;5251;52.112;8.606;2024-01-15T12:34:19;5.90;97.80
10411;DHT22;5251;52.112;8.606;2024-01-15T12:36:48;5.90;97.80
10411;DHT22;5251;52.112;8.606;2024-01-15T12:39:14;5.80;97.70
10411;DHT22;5251;52.112;8.606;2024-01-15T12:41:41;5.80;97.60
10411;DHT22;5251;52.112;8.606;2024-01-15T12:44:07;5.80;97.60
10411;DHT22;5251;52.112;8.606;2024-01-15T12:46:32;5.80;97.70
10411;DHT22;5251;52.112;8.606;2024-01-15T12:48:58;5.80;97.80
10411;DHT22;5251;52.112;8.606;2024-01-15T12:51:27;5.80;97.90
10411;DHT22;5251;52.112;8.606;2024-01-15T12:53:53;5.80;98.00
10411;DHT22;5251;52.112;8.606;2024-01-15T12:56:19;5.90;98.00
10411;DHT22;5251;52.112;8.606;2024-01-15T12:58:44;5.90;98.00
10411;DHT22;5251;52.112;8.606;2024-01-15T13:01:10;6.00;97.90
10411;DHT22;5251;52.112;8.606;2024-01-15T13:03:35;6.00;97.70
10411;DHT22;5251;52.112;8.606;2024-01-15T13:06:01;5.90;97.80
10411;DHT22;5251;52.112;8.606;2024-01-15T13:08:27;5.90;97.80
10411;DHT22;5251;52.112;8.606;2024-01-15T13:10:55;5.90;98.10
10411;DHT22;5251;52.112;8.606;2024-01-15T13:13:22;5.90;98.20
10411;DHT22;5251;52.112;8.606;2024-01-15T13:15:48;6.00;98.20
10411;DHT22;5251;52.112;8.606;2024-01-15T13:18:14;6.00;98.10
10411;DHT22;5251;52.112;8.606;2024-01-15T13:20:39;6.00;98.10
10411;DHT22;5251;52.112;8.606;2024-01-15T13:23:05;6.00;98.00
10411;DHT22;5251;52.112;8.606;2024-01-15T13:25:31;6.00;97.80
10411;DHT22;5251;52.112;8.606;2024-01-15T13:27:57;6.00;97.80
10411;DHT22;5251;52.112;8.606;2024-01-15T13:30:23;6.00;97.60
10411;DHT22;5251;52.112;8.606;2024-01-15T13:32:49;5.90;97.60
10411;DHT22;5251;52.112;8.606;2024-01-15T13:35:14;6.00;97.60
10411;DHT22;5251;52.112;8.606;2024-01-15T13:37:40;5.90;97.50
10411;DHT22;5251;52.112;8.606;2024-01-15T13:40:09;5.90;97.60
10411;DHT22;5251;52.112;8.606;2024-01-15T13:42:35;5.80;97.80
10411;DHT22;5251;52.112;8.606;2024-01-15T13:45:05;5.80;98.00
10411;DHT22;5251;52.112;8.606;2024-01-15T13:47:31;5.80;98.20
10411;DHT22;5251;52.112;8.606;2024-01-15T13:49:57;5.90;98.20
10411;DHT22;5251;52.112;8.606;2024-01-15T13:52:23;5.90;98.00
10411;DHT22;5251;52.112;8.606;2024-01-15T13:54:49;5.90;97.90
10411;DHT22;5251;52.112;8.606;2024-01-15T13:57:15;5.90;97.80
10411;DHT22;5251;52.112;8.606;2024-01-15T13:59:40;5.90;98.00
10411;DHT22;5251;52.112;8.606;2024-01-15T14:02:06;5.80;98.00
10411;DHT22;5251;52.112;8.606;2024-01-15T14:04:32;5.80;98.20
10411;DHT22;5251;52.112;8.606;2024-01-15T14:06:57;5.70;98.00
10411;DHT22;5251;52.112;8.606;2024-01-15T14:09:23;5.70;98.10
10411;DHT22;5251;52.112;8.606;2024-01-15T14:11:49;5.70;98.20
10411;DHT22;5251;52.112;8.606;2024-01-15T14:14:14;5.60;98.20
10411;DHT22;5251;52.112;8.606;2024-01-15T14:16:40;5.60;98.40
10411;DHT22;5251;52.112;8.606;2024-01-15T14:19:07;5.50;98.80
10411;DHT22;5251;52.112;8.606;2024-01-15T14:21:35;5.40;98.90
10411;DHT22;5251;52.112;8.606;2024-01-15T14:24:01;5.40;99.10
10411;DHT22;5251;52.112;8.606;2024-01-15T14:26:26;5.30;99.40
10411;DHT22;5251;52.112;8.606;2024-01-15T14:28:53;5.30;99.60
10411;DHT22;5251;52.112;8.606;2024-01-15T14:31:20;5.30;99.70
10411;DHT22;5251;52.112;8.606;2024-01-15T14:33:46;5.20;99.80
10411;DHT22;5251;52.112;8.606;2024-01-15T14:36:11;5.20;99.90
10411;DHT22;5251;52.112;8.606;2024-01-15T14:38:37;5.20;99.90
10411;DHT22;5251;52.112;8.606;2024-01-15T14:41:02;5.10;99.90
10411;DHT22;5251;52.112;8.606;2024-01-15T14:43:29;5.00;99.90
10411;DHT22;5251;52.112;8.606;2024-01-15T14:45:55;5.00;99.90
10411;DHT22;5251;52.112;8.606;2024-01-15T14:48:20;5.00;99.90
10411;DHT22;5251;52.112;8.606;2024-01-15T14:50:46;5.00;99.90
10411;DHT22;5251;52.112;8.606;2024-01-15T14:53:11;5.00;99.90
10411;DHT22;5251;52.112;8.606;2024-01-15T14:55:37;5.00;99.90
10411;DHT22;5251;52.112;8.606;2024-01-15T14:58:03;5.00;99.90
10411;DHT22;5251;52.112;8.606;2024-01-15T15:00:28;4.90;99.90
10411;DHT22;5251;52.112;8.606;2024-01-15T15:02:54;4.90;99.90
10411;DHT22;5251;52.112;8.606;2024-01-15T15:05:20;4.90;99.90
10411;DHT22;5251;52.112;8.606;2024-01-15T15:07:45;4.90;99.90
10411;DHT22;5251;52.112;8.606;2024-01-15T15:10:11;4.90;99.90
10411;DHT22;5251;52.112;8.606;2024-01-15T15:12:37;5.00;99.90
10411;DHT22;5251;52.112;8.606;2024-01-15T15:15:03;5.00;99.90
10411;DHT22;5251;52.112;8.606;2024-01-15T15:17:29;5.00;99.90
10411;DHT22;5251;52.112;8.606;2024-01-15T15:19:54;5.00;99.90
10411;DHT22;5251;52.112;8.606;2024-01-15T15:22:21;4.90;99.90
10411;DHT22;5251;52.112;8.606;2024-01-15T15:24:46;5.00;99.90
10411;DHT22;5251;52.112;8.606;2024-01-15T15:27:12;5.00;99.90
10411;DHT22;5251;52.112;8.606;2024-01-15T15:29:37;5.00;99.90
10411;DHT22;5251;52.112;8.606;2024-01-15T15:32:03;5.00;99.90
10411;DHT22;5251;52.112;8.606;2024-01-15T15:34:29;5.00;99.90
10411;DHT22;5251;52.112;8.606;2024-01-15T15:36:55;5.00;99.90
10411;DHT22;5251;52.112;8.606;2024-01-15T15:39:21;5.00;99.80
10411;DHT22;5251;52.112;8.606;2024-01-15T15:41:46;5.00;99.80
10411;DHT22;5251;52.112;8.606;2024-01-15T15:44:14;5.00;99.60
10411;DHT22;5251;52.112;8.606;2024-01-15T15:46:42;5.00;99.30
10411;DHT22;5251;52.112;8.606;2024-01-15T15:49:08;5.00;99.30
10411;DHT22;5251;52.112;8.606;2024-01-15T15:51:33;5.00;99.40
10411;DHT22;5251;52.112;8.606;2024-01-15T15:54:01;5.00;99.30
10411;DHT22;5251;52.112;8.606;2024-01-15T15:56:27;5.00;99.20
10411;DHT22;5251;52.112;8.606;2024-01-15T15:58:52;5.00;99.00
10411;DHT22;5251;52.112;8.606;2024-01-15T16:01:18;5.00;99.00
10411;DHT22;5251;52.112;8.606;2024-01-15T16:03:44;5.00;99.10
10411;DHT22;5251;52.112;8.606;2024-01-15T16:06:10;5.00;99.00
10411;DHT22;5251;52.112;8.606;2024-01-15T16:08:36;5.00;99.00
10411;DHT22;5251;52.112;8.606;2024-01-15T16:11:01;5.00;98.90
10411;DHT22;5251;52.112;8.606;2024-01-15T16:13:27;5.00;98.90